Tuffy II — WDC3266 — position and weather

sailwx.info

Track history (hours):
 
Tides and Currents Weather Stations Pressure Air Temp Water Temp Dewpoint Dewpoint Depression Visibility Wind Speed Wind Dir Waves Ship Positions

Tuffy II

Owner: Seaway Co. of Catalina, Wilmington, CA. More information available from US FCC via Universal Licensing System and Coast Guard Vessel Documentation Center.

Last reported at 2017-Oct-27 04:42 UTC. Time now 2017-Nov-24 12:53 UTC.
Position N 33°46' W 118°13'.
Warning: this ship's position is 28 days out of date.

Length 18 m; draft 2.2 m.

Type: Tug. MMSI: 367004930.

Date/timePositionNaut miles runAvg speedWind from/ knotsBaromVisibWave heightAir tempDewpointWater temp
2017-Oct-27 04:42N 33°46' W 118°13'0 0.3
2017-Oct-27 04:30N 33°46' W 118°13'1 2.0
2017-Oct-27 03:57N 33°45' W 118°13'1 2.3
2017-Oct-27 03:30N 33°44' W 118°14'0 0.1
2017-Oct-27 03:00N 33°44' W 118°13'0 0.1
2017-Oct-27 02:30N 33°44' W 118°13'0 0.1
2017-Oct-27 02:00N 33°44' W 118°13'0 0.0
2017-Oct-27 01:30N 33°44' W 118°13'0 0.0
2017-Oct-27 01:00N 33°44' W 118°13'0 0.1
2017-Oct-27 00:30N 33°44' W 118°13'0 0.0
2017-Oct-27 00:00N 33°44' W 118°13'0 0.0
2017-Oct-26 23:30N 33°44' W 118°13'0 0.0
2017-Oct-26 23:00N 33°44' W 118°13'0 0.0
2017-Oct-26 22:30N 33°44' W 118°13'0 0.0
2017-Oct-26 22:00N 33°44' W 118°13'0 0.0
2017-Oct-26 21:30N 33°44' W 118°13'0 0.0
2017-Oct-26 21:00N 33°44' W 118°13'0 0.1
2017-Oct-26 20:30N 33°44' W 118°13'2 3.6
2017-Oct-26 20:00N 33°46' W 118°13'0 0.7
2017-Oct-26 19:30N 33°46' W 118°13'0 0.0
2017-Oct-25 22:35N 33°46' W 118°13'0 0.0
2017-Oct-25 22:30N 33°46' W 118°13'0 0.9
2017-Oct-25 22:00N 33°46' W 118°13'2 3.7
2017-Oct-25 21:30N 33°44' W 118°13'2 3.4
2017-Oct-25 21:00N 33°43' W 118°12'1 1.3
2017-Oct-25 20:29N 33°42' W 118°12'0 0.0
2017-Oct-25 20:00N 33°42' W 118°12'0 0.1
2017-Oct-25 19:30N 33°42' W 118°12'0 0.1
2017-Oct-25 19:00N 33°42' W 118°12'0 0.0
2017-Oct-25 18:30N 33°42' W 118°12'0 0.1
2017-Oct-25 18:00N 33°42' W 118°12'0 0.0
2017-Oct-25 17:30N 33°42' W 118°12'0 0.0
2017-Oct-25 17:00N 33°42' W 118°12'0 0.0
2017-Oct-25 16:30N 33°42' W 118°12'0 0.1
2017-Oct-25 16:00N 33°42' W 118°13'0 0.1
2017-Oct-25 15:30N 33°42' W 118°12'0 0.1
2017-Oct-25 15:00N 33°42' W 118°13'1 2.7
2017-Oct-25 14:30N 33°43' W 118°11'2 5.0
2017-Oct-25 14:00N 33°45' W 118°13'1 2.3
2017-Oct-25 13:30N 33°46' W 118°13'0 0.0
2017-Oct-25 13:00N 33°46' W 118°13'0 0.0
2017-Oct-24 18:08N 33°46' W 118°13'0 0.0
2017-Oct-24 18:00N 33°46' W 118°13'  
2017-Oct-17 10:54N 33°46' W 118°13'3 5.4
2017-Oct-17 10:24N 33°45' W 118°16'1 2.1
2017-Oct-17 09:58N 33°46' W 118°17'0 0.2
2017-Oct-17 09:20N 33°46' W 118°16'2 3.5
2017-Oct-17 08:43N 33°46' W 118°14'  
Track history (hours):
 
Tides and Currents Weather Stations Pressure Air Temp Water Temp Dewpoint Dewpoint Depression Visibility Wind Speed Wind Dir Waves Ship Positions

Tuffy II

Owner: Seaway Co. of Catalina, Wilmington, CA. More information available from US FCC via Universal Licensing System and Coast Guard Vessel Documentation Center.

Last reported at 2017-Oct-27 04:42 UTC. Time now 2017-Nov-24 12:53 UTC.
Position N 33°46' W 118°13'.
Warning: this ship's position is 28 days out of date.

Length 18 m; draft 2.2 m.

Type: Tug. MMSI: 367004930.

Date/timePositionNaut miles runAvg speedWind from/ knotsBaromVisibWave heightAir tempDewpointWater temp
2017-Oct-27 04:42N 33°46' W 118°13'0 0.3
2017-Oct-27 04:30N 33°46' W 118°13'1 2.0
2017-Oct-27 03:57N 33°45' W 118°13'1 2.3
2017-Oct-27 03:30N 33°44' W 118°14'0 0.1
2017-Oct-27 03:00N 33°44' W 118°13'0 0.1
2017-Oct-27 02:30N 33°44' W 118°13'0 0.1
2017-Oct-27 02:00N 33°44' W 118°13'0 0.0
2017-Oct-27 01:30N 33°44' W 118°13'0 0.0
2017-Oct-27 01:00N 33°44' W 118°13'0 0.1
2017-Oct-27 00:30N 33°44' W 118°13'0 0.0
2017-Oct-27 00:00N 33°44' W 118°13'0 0.0
2017-Oct-26 23:30N 33°44' W 118°13'0 0.0
2017-Oct-26 23:00N 33°44' W 118°13'0 0.0
2017-Oct-26 22:30N 33°44' W 118°13'0 0.0
2017-Oct-26 22:00N 33°44' W 118°13'0 0.0
2017-Oct-26 21:30N 33°44' W 118°13'0 0.0
2017-Oct-26 21:00N 33°44' W 118°13'0 0.1
2017-Oct-26 20:30N 33°44' W 118°13'2 3.6
2017-Oct-26 20:00N 33°46' W 118°13'0 0.7
2017-Oct-26 19:30N 33°46' W 118°13'0 0.0
2017-Oct-25 22:35N 33°46' W 118°13'0 0.0
2017-Oct-25 22:30N 33°46' W 118°13'0 0.9
2017-Oct-25 22:00N 33°46' W 118°13'2 3.7
2017-Oct-25 21:30N 33°44' W 118°13'2 3.4
2017-Oct-25 21:00N 33°43' W 118°12'1 1.3
2017-Oct-25 20:29N 33°42' W 118°12'0 0.0
2017-Oct-25 20:00N 33°42' W 118°12'0 0.1
2017-Oct-25 19:30N 33°42' W 118°12'0 0.1
2017-Oct-25 19:00N 33°42' W 118°12'0 0.0
2017-Oct-25 18:30N 33°42' W 118°12'0 0.1
2017-Oct-25 18:00N 33°42' W 118°12'0 0.0
2017-Oct-25 17:30N 33°42' W 118°12'0 0.0
2017-Oct-25 17:00N 33°42' W 118°12'0 0.0
2017-Oct-25 16:30N 33°42' W 118°12'0 0.1
2017-Oct-25 16:00N 33°42' W 118°13'0 0.1
2017-Oct-25 15:30N 33°42' W 118°12'0 0.1
2017-Oct-25 15:00N 33°42' W 118°13'1 2.7
2017-Oct-25 14:30N 33°43' W 118°11'2 5.0
2017-Oct-25 14:00N 33°45' W 118°13'1 2.3
2017-Oct-25 13:30N 33°46' W 118°13'0 0.0
2017-Oct-25 13:00N 33°46' W 118°13'0 0.0
2017-Oct-24 18:08N 33°46' W 118°13'0 0.0
2017-Oct-24 18:00N 33°46' W 118°13'  
2017-Oct-17 10:54N 33°46' W 118°13'3 5.4
2017-Oct-17 10:24N 33°45' W 118°16'1 2.1
2017-Oct-17 09:58N 33°46' W 118°17'0 0.2
2017-Oct-17 09:20N 33°46' W 118°16'2 3.5
2017-Oct-17 08:43N 33°46' W 118°14'  

Dump ship's entire track history